Time;durP1;ratioP1;P1;durP2;ratioP2;P2;SDS_P1;SDS_P2;PMS_P1;PMS_P2;Temp;Humidity;BMP_temperature;BMP_pressure;BME280_temperature;BME280_humidity;BME280_pressure;Samples;Min_cycle;Max_cycle;Signal;HPM_P1;HPM_P2
2023/09/26 00:00:20;;;;;;;8.38;4.20;;;11.90;99.90;;;;;;5021370;28;20025;-54
2023/09/26 00:02:50;;;;;;;7.30;4.05;;;11.90;99.90;;;;;;5023068;28;20577;-54
2023/09/26 00:05:18;;;;;;;10.25;4.43;;;11.90;99.90;;;;;;5021321;28;20030;-57
2023/09/26 00:07:44;;;;;;;8.23;4.55;;;11.90;99.90;;;;;;5020441;28;20026;-52
2023/09/26 00:10:12;;;;;;;11.13;4.65;;;11.90;99.90;;;;;;5027061;28;20014;-52
2023/09/26 00:12:38;;;;;;;8.18;4.72;;;11.90;99.90;;;;;;5022334;28;20456;-52
2023/09/26 00:15:05;;;;;;;7.90;4.50;;;12.00;99.90;;;;;;5015460;28;20111;-54
2023/09/26 00:17:31;;;;;;;9.75;4.78;;;11.90;99.90;;;;;;5025304;28;20034;-51
2023/09/26 00:19:57;;;;;;;9.43;4.18;;;11.90;99.90;;;;;;5017946;28;20036;-54
2023/09/26 00:22:23;;;;;;;10.50;4.30;;;11.90;99.90;;;;;;5020540;28;20030;-54
2023/09/26 00:24:48;;;;;;;11.45;4.50;;;11.90;99.90;;;;;;5018567;28;20034;-56
2023/09/26 00:27:14;;;;;;;10.27;4.05;;;11.90;99.90;;;;;;5022112;28;20079;-56
2023/09/26 00:29:40;;;;;;;6.75;4.40;;;11.70;99.90;;;;;;5014062;28;20025;-55
2023/09/26 00:32:06;;;;;;;7.18;4.38;;;11.70;99.90;;;;;;5011696;28;20022;-54
2023/09/26 00:34:31;;;;;;;7.25;4.50;;;11.70;99.90;;;;;;5017474;28;20018;-56
2023/09/26 00:36:57;;;;;;;6.82;4.22;;;11.60;99.90;;;;;;5015025;28;20021;-57
2023/09/26 00:39:22;;;;;;;13.05;4.78;;;11.60;99.90;;;;;;5011291;28;20056;-53
2023/09/26 00:41:48;;;;;;;7.97;3.53;;;11.60;99.90;;;;;;5011367;28;20056;-55
2023/09/26 00:44:14;;;;;;;9.85;4.32;;;11.60;99.90;;;;;;5015154;28;20044;-56
2023/09/26 00:46:41;;;;;;;6.93;4.35;;;11.50;99.90;;;;;;5013573;28;20049;-55
2023/09/26 00:49:07;;;;;;;5.20;4.10;;;11.50;99.90;;;;;;5014416;28;20021;-55
2023/09/26 00:51:35;;;;;;;6.50;4.43;;;11.40;99.90;;;;;;5014912;28;20041;-53
2023/09/26 00:54:02;;;;;;;5.63;3.70;;;11.40;99.90;;;;;;5026369;28;20026;-56
2023/09/26 00:56:28;;;;;;;8.77;4.65;;;11.30;99.90;;;;;;5014187;28;20025;-56
2023/09/26 00:58:54;;;;;;;7.53;4.35;;;11.30;99.90;;;;;;5024816;28;20113;-55
2023/09/26 01:01:26;;;;;;;9.50;4.28;;;11.20;99.90;;;;;;5022730;28;20165;-55
2023/09/26 01:03:53;;;;;;;8.10;4.57;;;11.20;99.90;;;;;;5027951;28;20033;-58
2023/09/26 01:06:19;;;;;;;6.43;3.95;;;11.20;99.90;;;;;;5023608;28;20026;-57
2023/09/26 01:08:45;;;;;;;7.88;4.57;;;11.20;99.90;;;;;;5028444;28;20484;-53
2023/09/26 01:11:10;;;;;;;7.03;4.13;;;11.20;99.90;;;;;;5021349;28;20038;-53
2023/09/26 01:13:36;;;;;;;4.82;4.25;;;11.20;99.90;;;;;;5022297;28;20091;-56
2023/09/26 01:16:14;;;;;;;7.25;4.20;;;11.10;99.90;;;;;;5017530;28;20061;-55
2023/09/26 01:18:40;;;;;;;12.13;4.10;;;;;;;;;;5027402;28;20058;-52
2023/09/26 01:21:06;;;;;;;5.82;3.83;;;11.10;99.90;;;;;;5018568;28;20061;-55
2023/09/26 01:23:32;;;;;;;7.25;4.30;;;11.00;99.90;;;;;;5023408;28;20387;-53
2023/09/26 01:25:58;;;;;;;8.40;5.00;;;11.00;99.90;;;;;;5018844;28;20056;-56
2023/09/26 01:28:23;;;;;;;8.00;4.65;;;11.00;99.90;;;;;;5017884;28;20467;-56
2023/09/26 01:30:49;;;;;;;8.82;4.68;;;11.00;99.90;;;;;;5007353;28;20649;-53
2023/09/26 01:33:19;;;;;;;9.55;4.72;;;11.00;99.90;;;;;;5013032;28;20542;-53
2023/09/26 01:35:45;;;;;;;8.30;5.20;;;10.90;99.90;;;;;;5016915;28;20053;-54
2023/09/26 01:38:11;;;;;;;7.72;4.93;;;10.90;99.90;;;;;;5014072;28;20072;-56
2023/09/26 01:40:37;;;;;;;12.60;4.80;;;10.90;99.90;;;;;;5016849;28;20079;-55
2023/09/26 01:43:03;;;;;;;8.45;4.75;;;11.00;99.90;;;;;;5024620;28;20014;-52
2023/09/26 01:45:28;;;;;;;9.82;4.90;;;10.90;99.90;;;;;;5017037;28;20032;-54
2023/09/26 01:47:54;;;;;;;9.57;5.45;;;10.90;99.90;;;;;;5012771;28;20038;-56
2023/09/26 01:50:20;;;;;;;8.82;5.05;;;10.90;99.90;;;;;;5020308;28;20022;-56
2023/09/26 01:52:47;;;;;;;12.40;5.30;;;10.90;99.90;;;;;;5018885;28;20492;-54
2023/09/26 01:55:22;;;;;;;10.77;5.10;;;10.90;99.90;;;;;;5028486;28;20610;-53
2023/09/26 01:57:49;;;;;;;11.05;5.50;;;;;;;;;;5028361;28;20427;-52
2023/09/26 02:00:17;;;;;;;7.50;4.60;;;10.80;99.90;;;;;;5011267;28;20029;-54
2023/09/26 02:02:48;;;;;;;8.38;5.18;;;10.70;99.90;;;;;;5009838;28;20075;-54
2023/09/26 02:05:17;;;;;;;7.57;5.38;;;10.80;99.90;;;;;;5014446;28;20040;-54
2023/09/26 02:07:43;;;;;;;9.45;5.25;;;10.70;99.90;;;;;;5013823;28;20377;-54
2023/09/26 02:10:09;;;;;;;8.70;5.22;;;10.70;99.90;;;;;;5013944;28;20556;-55
2023/09/26 02:12:37;;;;;;;14.52;5.75;;;10.70;99.90;;;;;;5012669;28;20021;-56
2023/09/26 02:15:05;;;;;;;7.07;4.88;;;10.70;99.90;;;;;;5020932;28;20034;-53
2023/09/26 02:17:33;;;;;;;8.77;5.22;;;10.70;99.90;;;;;;5021034;28;20030;-53
2023/09/26 02:20:00;;;;;;;9.30;5.57;;;10.60;99.90;;;;;;5011675;28;20522;-54
2023/09/26 02:22:25;;;;;;;8.45;4.90;;;10.60;99.90;;;;;;5022057;28;20038;-53
2023/09/26 02:24:54;;;;;;;10.15;5.28;;;10.60;99.90;;;;;;5026026;28;20029;-56
2023/09/26 02:27:19;;;;;;;11.35;6.13;;;10.50;99.90;;;;;;5025838;28;20029;-51
2023/09/26 02:29:45;;;;;;;8.45;5.53;;;10.50;99.90;;;;;;5029372;28;20511;-50
2023/09/26 02:32:11;;;;;;;7.57;4.97;;;10.50;99.90;;;;;;5014515;28;20022;-48
2023/09/26 02:34:36;;;;;;;11.02;5.60;;;10.40;99.90;;;;;;5022967;28;20030;-53
2023/09/26 02:37:02;;;;;;;8.95;5.43;;;10.40;99.90;;;;;;5020354;28;20034;-54
2023/09/26 02:39:28;;;;;;;15.85;5.78;;;10.40;99.90;;;;;;5018802;28;20510;-52
2023/09/26 02:41:54;;;;;;;10.02;6.13;;;10.40;99.90;;;;;;5017821;28;20033;-55
2023/09/26 02:44:19;;;;;;;7.97;5.50;;;10.40;99.90;;;;;;5019933;28;20083;-53
2023/09/26 02:46:45;;;;;;;9.57;5.82;;;10.40;99.90;;;;;;5014477;28;20034;-55
2023/09/26 02:49:10;;;;;;;14.40;5.88;;;10.40;99.90;;;;;;5028309;28;20029;-53
2023/09/26 02:51:36;;;;;;;9.93;5.95;;;10.40;99.90;;;;;;5019820;28;20037;-56
2023/09/26 02:54:01;;;;;;;9.23;6.20;;;10.40;99.90;;;;;;5019502;28;20049;-53
2023/09/26 02:56:27;;;;;;;12.48;6.72;;;10.40;99.90;;;;;;5019526;28;20080;-54
2023/09/26 02:58:53;;;;;;;9.55;5.93;;;10.40;99.90;;;;;;5018859;28;20096;-54
2023/09/26 03:01:20;;;;;;;17.02;5.85;;;10.40;99.90;;;;;;5017903;28;20108;-55
2023/09/26 03:03:45;;;;;;;11.40;5.90;;;10.40;99.90;;;;;;5023211;28;20045;-53
2023/09/26 03:06:11;;;;;;;17.65;6.40;;;10.40;99.90;;;;;;5013657;28;20033;-54
2023/09/26 03:08:37;;;;;;;16.88;6.40;;;10.40;99.90;;;;;;5014750;28;20026;-50
2023/09/26 03:11:03;;;;;;;12.05;6.18;;;10.40;99.90;;;;;;5011621;28;20021;-54
2023/09/26 03:13:32;;;;;;;9.52;5.57;;;10.30;99.90;;;;;;5018691;28;20014;-52
2023/09/26 03:15:59;;;;;;;11.10;5.75;;;10.30;99.90;;;;;;5005691;28;20515;-50
2023/09/26 03:18:26;;;;;;;13.00;6.07;;;10.30;99.90;;;;;;5017925;28;20041;-56
2023/09/26 03:20:52;;;;;;;12.32;5.32;;;10.30;99.90;;;;;;5015466;28;20072;-56
2023/09/26 03:23:18;;;;;;;9.35;6.07;;;10.30;99.90;;;;;;5018175;28;20072;-55
2023/09/26 03:25:44;;;;;;;11.88;6.55;;;10.30;99.90;;;;;;5019088;28;20053;-56
2023/09/26 03:28:09;;;;;;;13.07;6.40;;;10.30;99.90;;;;;;5018845;28;20022;-53
2023/09/26 03:30:36;;;;;;;11.00;5.35;;;10.20;99.90;;;;;;5012125;28;20018;-56
2023/09/26 03:33:01;;;;;;;8.35;5.45;;;10.20;99.90;;;;;;5017748;28;20026;-53
2023/09/26 03:35:27;;;;;;;10.40;6.78;;;10.20;99.90;;;;;;5022682;28;20560;-53
2023/09/26 03:37:52;;;;;;;9.00;6.28;;;10.20;99.90;;;;;;5021215;28;20037;-54
2023/09/26 03:40:18;;;;;;;10.18;5.97;;;10.20;99.90;;;;;;5022006;28;20037;-58
2023/09/26 03:42:43;;;;;;;11.45;6.43;;;10.20;99.90;;;;;;5028365;28;20026;-57
2023/09/26 03:45:09;;;;;;;9.05;6.22;;;10.20;99.90;;;;;;5014285;28;20049;-55
2023/09/26 03:47:35;;;;;;;10.95;6.32;;;10.20;99.90;;;;;;5015499;28;20086;-56
2023/09/26 03:50:00;;;;;;;11.73;6.15;;;10.20;99.90;;;;;;5013429;28;20026;-52
2023/09/26 03:52:26;;;;;;;11.88;6.65;;;10.20;99.90;;;;;;5027333;28;20037;-57
2023/09/26 03:54:51;;;;;;;9.27;5.65;;;10.20;99.90;;;;;;5018582;28;20095;-52
2023/09/26 03:57:17;;;;;;;10.27;6.60;;;10.20;99.90;;;;;;5013508;28;20112;-54
2023/09/26 03:59:47;;;;;;;11.27;5.82;;;10.20;99.90;;;;;;5013721;28;20041;-55
2023/09/26 04:02:12;;;;;;;12.10;6.63;;;10.20;99.90;;;;;;5014960;28;20029;-55
2023/09/26 04:04:38;;;;;;;9.95;6.47;;;10.20;99.90;;;;;;5014099;28;20405;-56
2023/09/26 04:07:03;;;;;;;10.63;5.38;;;10.20;99.90;;;;;;5019924;28;20083;-54
2023/09/26 04:09:29;;;;;;;14.35;7.22;;;10.20;99.90;;;;;;5018006;28;20040;-56
2023/09/26 04:11:54;;;;;;;10.88;5.88;;;10.20;99.90;;;;;;5014488;28;20025;-56
2023/09/26 04:14:20;;;;;;;8.35;6.03;;;10.20;99.90;;;;;;5030352;28;20021;-53
2023/09/26 04:16:45;;;;;;;10.90;6.45;;;10.20;99.90;;;;;;5015118;28;20045;-55
2023/09/26 04:19:11;;;;;;;9.98;6.53;;;10.20;99.90;;;;;;5014537;28;20113;-51
2023/09/26 04:21:37;;;;;;;9.77;5.70;;;10.20;99.90;;;;;;5020838;28;20139;-56
2023/09/26 04:24:04;;;;;;;14.10;6.40;;;10.20;99.90;;;;;;5021628;28;20033;-58
2023/09/26 04:26:30;;;;;;;7.32;6.00;;;10.30;99.90;;;;;;5015451;28;20062;-56
2023/09/26 04:28:55;;;;;;;15.88;6.95;;;10.30;99.90;;;;;;5026449;28;20065;-57
2023/09/26 04:31:21;;;;;;;10.57;6.65;;;10.30;99.90;;;;;;5010041;28;20042;-52
2023/09/26 04:33:50;;;;;;;13.07;6.32;;;10.20;99.90;;;;;;5013646;28;20029;-57
2023/09/26 04:36:16;;;;;;;8.82;6.28;;;10.20;99.90;;;;;;5015663;28;20029;-56
2023/09/26 04:38:42;;;;;;;11.30;6.68;;;10.20;99.90;;;;;;5024994;28;20084;-54
2023/09/26 04:41:08;;;;;;;8.77;6.07;;;10.20;99.90;;;;;;5018975;28;20064;-54
2023/09/26 04:43:34;;;;;;;13.05;6.88;;;10.20;99.90;;;;;;5017064;28;20056;-53
2023/09/26 04:46:00;;;;;;;10.43;6.85;;;10.30;99.90;;;;;;5019003;28;20028;-54
2023/09/26 04:48:26;;;;;;;10.38;6.63;;;10.20;99.90;;;;;;5025002;28;20033;-56
2023/09/26 04:50:52;;;;;;;7.78;6.05;;;10.30;99.90;;;;;;5015610;28;20084;-51
2023/09/26 04:53:17;;;;;;;11.93;6.63;;;10.20;99.90;;;;;;5024769;28;20021;-56
2023/09/26 04:55:43;;;;;;;10.77;7.03;;;10.20;99.90;;;;;;5016666;28;20121;-55
2023/09/26 04:58:09;;;;;;;10.45;7.43;;;10.20;99.90;;;;;;5020795;28;20048;-55
2023/09/26 05:00:36;;;;;;;10.85;6.57;;;10.20;99.90;;;;;;5012994;28;20540;-54
2023/09/26 05:03:02;;;;;;;10.07;6.80;;;10.20;99.90;;;;;;5014878;28;20107;-52
2023/09/26 05:05:28;;;;;;;10.73;6.80;;;10.10;99.90;;;;;;5017197;28;20025;-54
2023/09/26 05:07:54;;;;;;;9.05;6.70;;;10.10;99.90;;;;;;5016952;28;20461;-56
2023/09/26 05:10:20;;;;;;;12.93;6.30;;;10.10;99.90;;;;;;5016642;28;20096;-54
2023/09/26 05:12:46;;;;;;;11.38;6.80;;;10.10;99.90;;;;;;5018016;28;20100;-56
2023/09/26 05:15:16;;;;;;;10.45;6.72;;;10.00;99.90;;;;;;5032711;28;20033;-54
2023/09/26 05:17:45;;;;;;;11.85;7.57;;;10.00;99.90;;;;;;5018568;28;20112;-53
2023/09/26 05:20:11;;;;;;;11.82;6.97;;;10.00;99.90;;;;;;5006608;28;20022;-56
2023/09/26 05:22:41;;;;;;;17.50;8.10;;;10.00;99.90;;;;;;5012874;28;20049;-55
2023/09/26 05:25:07;;;;;;;11.48;7.28;;;9.90;99.90;;;;;;5014442;28;20038;-58
2023/09/26 05:27:34;;;;;;;10.45;7.45;;;9.90;99.90;;;;;;5023535;28;20390;-57
2023/09/26 05:30:00;;;;;;;9.90;7.22;;;9.90;99.90;;;;;;5010920;28;20554;-58
2023/09/26 05:32:25;;;;;;;14.48;8.00;;;10.00;99.90;;;;;;5017720;28;20026;-59
2023/09/26 05:34:51;;;;;;;11.82;7.53;;;10.00;99.90;;;;;;5011548;28;20042;-58
2023/09/26 05:37:16;;;;;;;11.00;7.40;;;10.00;99.90;;;;;;5013686;28;20037;-54
2023/09/26 05:39:42;;;;;;;14.07;7.47;;;10.00;99.90;;;;;;5013437;28;20076;-60
2023/09/26 05:42:10;;;;;;;14.52;8.23;;;10.00;99.90;;;;;;5021219;28;20396;-60
2023/09/26 05:44:35;;;;;;;13.45;7.88;;;10.10;99.90;;;;;;5018227;28;20412;-57
2023/09/26 05:47:01;;;;;;;14.15;8.93;;;10.10;99.90;;;;;;5018305;28;20145;-60
2023/09/26 05:49:26;;;;;;;14.57;8.73;;;10.10;99.90;;;;;;5009423;28;20160;-55
2023/09/26 05:51:52;;;;;;;15.25;7.38;;;10.10;99.90;;;;;;5020253;28;20033;-58
2023/09/26 05:54:18;;;;;;;16.30;8.55;;;10.10;99.90;;;;;;5021314;28;20044;-60
2023/09/26 05:56:44;;;;;;;13.13;8.45;;;10.10;99.90;;;;;;5016203;28;20033;-60
2023/09/26 05:59:10;;;;;;;14.00;7.68;;;10.10;99.90;;;;;;5011034;28;20061;-58
2023/09/26 06:01:35;;;;;;;17.30;8.48;;;10.20;99.90;;;;;;5020619;28;20033;-57
2023/09/26 06:04:01;;;;;;;22.05;10.70;;;10.20;99.90;;;;;;5011999;28;20046;-59
2023/09/26 06:06:26;;;;;;;14.70;9.32;;;10.20;99.90;;;;;;5011275;28;20045;-59
2023/09/26 06:08:52;;;;;;;14.05;9.70;;;10.30;99.90;;;;;;5009137;28;20038;-58
2023/09/26 06:11:17;;;;;;;15.75;8.20;;;10.30;99.90;;;;;;5023195;28;20423;-58
2023/09/26 06:13:44;;;;;;;10.57;7.75;;;10.40;99.90;;;;;;5020198;28;20491;-58
2023/09/26 06:16:10;;;;;;;13.30;8.35;;;10.40;99.90;;;;;;5013756;28;20388;-60
2023/09/26 06:18:35;;;;;;;15.68;8.80;;;10.50;99.90;;;;;;5010957;28;20024;-59
2023/09/26 06:21:05;;;;;;;11.65;8.05;;;10.50;99.90;;;;;;5011706;28;20029;-58
2023/09/26 06:23:33;;;;;;;14.10;8.20;;;10.60;99.90;;;;;;5020182;28;20033;-60
2023/09/26 06:26:00;;;;;;;12.48;9.07;;;10.60;99.90;;;;;;5021770;28;20364;-57
2023/09/26 06:28:27;;;;;;;14.00;7.93;;;10.60;99.90;;;;;;5017134;28;20030;-57
2023/09/26 06:30:52;;;;;;;15.70;8.05;;;10.70;99.90;;;;;;5017570;28;20029;-60
2023/09/26 06:33:18;;;;;;;12.88;7.55;;;10.70;99.90;;;;;;5021811;28;20075;-59
2023/09/26 06:35:44;;;;;;;12.07;7.32;;;10.80;99.90;;;;;;5018578;28;20503;-55
2023/09/26 06:38:09;;;;;;;14.30;8.40;;;10.90;99.90;;;;;;5025774;28;20029;-57
2023/09/26 06:40:35;;;;;;;11.27;7.57;;;10.90;99.90;;;;;;5024689;28;20045;-59
2023/09/26 06:43:02;;;;;;;16.05;8.35;;;11.00;99.90;;;;;;5015865;28;20119;-58
2023/09/26 06:45:29;;;;;;;11.38;8.18;;;11.10;99.90;;;;;;5016025;28;21741;-58
2023/09/26 06:47:55;;;;;;;12.05;8.05;;;11.10;99.90;;;;;;5026406;28;20544;-56
2023/09/26 06:50:21;;;;;;;21.25;7.57;;;11.20;99.90;;;;;;5017909;28;20104;-55
2023/09/26 06:52:47;;;;;;;13.25;8.02;;;11.20;99.90;;;;;;5010647;28;20022;-58
2023/09/26 06:55:13;;;;;;;15.05;8.18;;;11.30;99.90;;;;;;5017322;28;20033;-57
2023/09/26 06:57:39;;;;;;;12.50;8.02;;;11.30;99.90;;;;;;5019972;28;20034;-59
2023/09/26 07:00:11;;;;;;;10.80;8.02;;;11.40;99.90;;;;;;5019936;28;20383;-60
2023/09/26 07:02:36;;;;;;;13.32;8.40;;;11.40;99.90;;;;;;5022358;28;20494;-59
2023/09/26 07:05:02;;;;;;;13.02;8.02;;;11.50;99.90;;;;;;5013394;28;20038;-59
2023/09/26 07:07:31;;;;;;;16.75;8.50;;;11.50;99.90;;;;;;5019219;28;20029;-59
2023/09/26 07:09:58;;;;;;;11.98;7.32;;;11.60;99.90;;;;;;5018650;28;20033;-59
2023/09/26 07:12:26;;;;;;;12.23;7.03;;;11.60;99.90;;;;;;5026301;28;20032;-60
2023/09/26 07:14:52;;;;;;;9.57;7.50;;;11.70;99.90;;;;;;5011701;28;20053;-60
2023/09/26 07:17:17;;;;;;;15.88;8.23;;;11.70;99.90;;;;;;5012217;28;20495;-59
2023/09/26 07:19:43;;;;;;;15.02;9.00;;;11.80;99.90;;;;;;5012711;28;20045;-58
2023/09/26 07:22:08;;;;;;;12.38;8.60;;;11.90;99.90;;;;;;5019265;28;20489;-59
2023/09/26 07:24:35;;;;;;;12.63;6.80;;;12.00;99.90;;;;;;5019134;28;20554;-59
2023/09/26 07:27:01;;;;;;;11.43;7.53;;;12.00;99.90;;;;;;5020534;28;20029;-58
2023/09/26 07:29:26;;;;;;;11.35;7.40;;;12.10;99.90;;;;;;5018311;28;20036;-57
2023/09/26 07:31:52;;;;;;;12.80;6.88;;;12.10;99.90;;;;;;5012734;28;20057;-56
2023/09/26 07:34:18;;;;;;;12.55;7.53;;;12.20;99.90;;;;;;5019256;28;20388;-58
2023/09/26 07:36:43;;;;;;;9.02;6.88;;;12.30;99.90;;;;;;5021797;28;20080;-55
2023/09/26 07:39:10;;;;;;;11.93;6.80;;;12.40;99.90;;;;;;5020020;28;20736;-59
2023/09/26 07:41:36;;;;;;;8.85;6.28;;;12.50;99.90;;;;;;5028450;28;20057;-58
2023/09/26 07:44:02;;;;;;;8.38;6.18;;;12.50;99.90;;;;;;5027422;28;20405;-58
2023/09/26 07:46:27;;;;;;;12.63;7.15;;;12.60;99.90;;;;;;5029077;28;20164;-56
2023/09/26 07:48:53;;;;;;;11.18;6.82;;;12.70;99.90;;;;;;5031279;28;20036;-58
2023/09/26 07:51:19;;;;;;;9.65;6.97;;;12.80;99.90;;;;;;5022866;28;20026;-57
2023/09/26 07:53:44;;;;;;;13.80;6.78;;;12.90;99.90;;;;;;5022953;28;20026;-59
2023/09/26 07:56:10;;;;;;;10.50;6.68;;;13.00;99.90;;;;;;5028776;28;20057;-59
2023/09/26 07:58:36;;;;;;;10.27;6.47;;;13.10;99.90;;;;;;5033761;28;20036;-60
2023/09/26 08:01:06;;;;;;;10.63;6.68;;;13.20;99.90;;;;;;5030568;28;20521;-59
2023/09/26 08:03:32;;;;;;;12.00;6.35;;;13.30;99.90;;;;;;5023750;28;20392;-57
2023/09/26 08:06:02;;;;;;;20.27;7.03;;;13.40;99.90;;;;;;5021974;28;20109;-58
2023/09/26 08:08:31;;;;;;;12.93;6.63;;;13.50;99.90;;;;;;5028832;28;20076;-59
2023/09/26 08:11:05;;;;;;;10.57;6.47;;;13.60;99.90;;;;;;5023678;28;20369;-59
2023/09/26 08:13:31;;;;;;;18.50;5.85;;;13.70;99.90;;;;;;5023216;28;20022;-59
2023/09/26 08:15:57;;;;;;;11.90;6.63;;;13.80;99.90;;;;;;5028882;28;20040;-58
2023/09/26 08:18:23;;;;;;;13.95;6.70;;;13.90;99.90;;;;;;5026398;28;20037;-59
2023/09/26 08:20:55;;;;;;;11.07;6.30;;;14.00;99.90;;;;;;5024510;28;20470;-55
2023/09/26 08:23:20;;;;;;;9.88;6.07;;;14.10;99.90;;;;;;5020201;28;20033;-57
2023/09/26 08:25:46;;;;;;;12.25;7.18;;;14.20;99.90;;;;;;5029202;28;20025;-56
2023/09/26 08:28:11;;;;;;;12.60;6.45;;;14.30;99.90;;;;;;5023282;28;20022;-57
2023/09/26 08:30:37;;;;;;;9.50;5.60;;;14.40;99.90;;;;;;5024811;28;20530;-58
2023/09/26 08:33:03;;;;;;;9.73;5.72;;;14.50;99.90;;;;;;5032308;28;20096;-59
2023/09/26 08:35:31;;;;;;;16.88;5.68;;;14.60;99.90;;;;;;5032197;28;20017;-59
2023/09/26 08:37:56;;;;;;;11.38;5.70;;;14.70;99.90;;;;;;5023062;28;20044;-59
2023/09/26 08:40:26;;;;;;;9.35;5.03;;;14.80;99.90;;;;;;5027164;28;20113;-55
2023/09/26 08:42:56;;;;;;;7.35;4.95;;;14.90;99.90;;;;;;5025542;28;20368;-59
2023/09/26 08:45:24;;;;;;;10.30;4.85;;;15.20;99.90;;;;;;5029355;28;20083;-57
2023/09/26 08:47:52;;;;;;;10.13;4.97;;;15.30;99.90;;;;;;5020028;28;20034;-57
2023/09/26 08:50:18;;;;;;;9.27;5.15;;;15.40;99.90;;;;;;5023705;28;20013;-58
2023/09/26 08:52:43;;;;;;;10.35;4.55;;;15.50;99.90;;;;;;5022654;28;20087;-52
2023/09/26 08:55:09;;;;;;;6.35;4.72;;;15.50;99.90;;;;;;5024564;28;20498;-57
2023/09/26 08:57:36;;;;;;;13.98;4.68;;;15.60;99.90;;;;;;5026873;28;20523;-54
2023/09/26 09:00:03;;;;;;;10.15;4.82;;;15.70;99.90;;;;;;5023805;28;20084;-56
2023/09/26 09:02:32;;;;;;;8.77;4.47;;;15.90;99.90;;;;;;5025869;28;20500;-56
2023/09/26 09:04:58;;;;;;;8.80;4.65;;;16.10;99.90;;;;;;5034721;28;20485;-56
2023/09/26 09:07:24;;;;;;;9.38;4.60;;;16.20;99.90;;;;;;5023381;28;20445;-58
2023/09/26 09:10:22;;;;;;;9.75;4.60;;;16.30;99.90;;;;;;5027695;28;20480;-57
2023/09/26 09:12:49;;;;;;;7.40;3.85;;;16.50;99.90;;;;;;5019255;28;20048;-56
2023/09/26 09:15:15;;;;;;;6.15;4.15;;;16.60;99.90;;;;;;5028846;28;20018;-58
2023/09/26 09:17:42;;;;;;;6.25;3.65;;;16.90;99.90;;;;;;5028260;28;20572;-58
2023/09/26 09:20:08;;;;;;;8.02;3.80;;;17.00;99.90;;;;;;5026975;28;20025;-59
2023/09/26 09:22:34;;;;;;;9.88;3.83;;;17.10;99.90;;;;;;5022552;28;20403;-59
2023/09/26 09:25:01;;;;;;;8.55;4.63;;;17.20;99.90;;;;;;5031175;28;20021;-58
2023/09/26 09:27:35;;;;;;;10.35;3.72;;;17.30;99.90;;;;;;5018575;28;20099;-59
2023/09/26 09:30:12;;;;;;;10.60;3.75;;;17.40;99.90;;;;;;5026877;28;20013;-58
2023/09/26 09:32:40;;;;;;;9.70;3.78;;;17.70;99.90;;;;;;5022152;28;20034;-59
2023/09/26 09:35:13;;;;;;;7.95;3.72;;;17.80;99.90;;;;;;5024619;28;20022;-58
2023/09/26 09:37:41;;;;;;;8.93;3.88;;;17.90;99.90;;;;;;5025077;28;20406;-57
2023/09/26 09:40:08;;;;;;;10.10;3.28;;;18.10;99.90;;;;;;5025422;28;20034;-57
2023/09/26 09:42:36;;;;;;;12.07;3.85;;;18.20;99.90;;;;;;5025123;28;20091;-59
2023/09/26 09:45:04;;;;;;;8.73;3.75;;;18.30;99.90;;;;;;5025308;28;20053;-57
2023/09/26 09:47:32;;;;;;;4.72;3.30;;;18.50;99.90;;;;;;5026232;28;20479;-60
2023/09/26 09:50:00;;;;;;;7.82;3.63;;;18.60;99.90;;;;;;5027060;28;20087;-59
2023/09/26 09:52:30;;;;;;;6.88;2.90;;;18.70;99.90;;;;;;5025251;28;20091;-58
2023/09/26 09:54:57;;;;;;;9.13;3.03;;;18.90;99.90;;;;;;5027689;28;20021;-59
2023/09/26 09:57:27;;;;;;;4.60;3.33;;;19.10;99.90;;;;;;5024006;28;20566;-59
2023/09/26 09:59:55;;;;;;;6.43;3.13;;;19.30;99.90;;;;;;5023404;28;20017;-58
2023/09/26 10:02:22;;;;;;;7.43;2.83;;;19.40;99.90;;;;;;5026226;28;20061;-59
2023/09/26 10:04:48;;;;;;;6.38;2.67;;;;;;;;;;5020521;28;20586;-59
2023/09/26 10:07:17;;;;;;;8.73;2.53;;;19.60;99.90;;;;;;5026006;28;20040;-59
2023/09/26 10:09:44;;;;;;;11.52;2.90;;;19.80;99.90;;;;;;5025361;28;20029;-60
2023/09/26 10:12:11;;;;;;;4.20;3.25;;;20.00;99.90;;;;;;5021779;28;20064;-58
2023/09/26 10:14:37;;;;;;;6.10;2.55;;;20.10;99.90;;;;;;5027383;28;20022;-55
2023/09/26 10:17:05;;;;;;;9.18;3.42;;;20.20;99.90;;;;;;5027323;28;20112;-56
2023/09/26 10:19:33;;;;;;;7.78;3.70;;;20.50;99.90;;;;;;5019429;28;20029;-58
2023/09/26 10:22:18;;;;;;;5.35;2.38;;;;;;;;;;5023522;28;20104;-59
2023/09/26 10:24:53;;;;;;;5.72;2.40;;;;;;;;;;5019562;28;20101;-59
2023/09/26 10:27:24;;;;;;;7.28;2.60;;;;;;;;;;5025922;28;20553;-59
2023/09/26 10:29:51;;;;;;;4.40;2.83;;;;;;;;;;5032058;28;20029;-58
2023/09/26 10:32:22;;;;;;;10.82;2.67;;;;;;;;;;5021434;28;20053;-59
2023/09/26 10:34:48;;;;;;;4.97;2.55;;;;;;;;;;5023029;28;20460;-59
2023/09/26 10:37:21;;;;;;;6.35;2.97;;;;;;;;;;5019153;28;20122;-59
2023/09/26 10:39:47;;;;;;;4.28;2.20;;;;;;;;;;5024177;28;20484;-59
2023/09/26 10:42:13;;;;;;;5.20;2.42;;;;;;;;;;5019359;28;20036;-57
2023/09/26 10:44:40;;;;;;;10.52;2.72;;;;;;;;;;5026681;28;20037;-59
2023/09/26 10:47:06;;;;;;;7.03;2.40;;;;;;;;;;5022697;28;20453;-59
2023/09/26 10:49:33;;;;;;;16.00;2.83;;;;;;;;;;5020846;28;20021;-59
2023/09/26 10:52:01;;;;;;;6.38;2.40;;;;;;;;;;5016872;28;20040;-60
2023/09/26 10:54:27;;;;;;;4.63;2.38;;;;;;;;;;5024926;28;20105;-59
2023/09/26 10:56:54;;;;;;;4.13;2.67;;;;;;;;;;5019007;28;20026;-61
2023/09/26 10:59:20;;;;;;;4.80;2.13;;;;;;;;;;5020648;28;20022;-59
2023/09/26 11:01:45;;;;;;;6.55;2.47;;;20.70;99.90;;;;;;5016466;28;20030;-59
2023/09/26 11:04:11;;;;;;;2.92;2.20;;;22.70;99.90;;;;;;5023407;28;20056;-58
2023/09/26 11:06:39;;;;;;;5.15;2.60;;;22.80;99.90;;;;;;5020615;28;20068;-58
2023/09/26 11:09:05;;;;;;;4.78;2.20;;;23.00;99.90;;;;;;5021958;28;20075;-57
2023/09/26 11:11:31;;;;;;;2.13;1.77;;;23.20;99.90;;;;;;5014632;28;20021;-57
2023/09/26 11:13:56;;;;;;;8.00;2.38;;;23.30;99.90;;;;;;5025510;28;20034;-56
2023/09/26 11:16:22;;;;;;;3.47;2.03;;;23.40;99.90;;;;;;5020224;28;20014;-57
2023/09/26 11:18:54;;;;;;;6.65;2.22;;;23.40;99.90;;;;;;5023332;28;20658;-59
2023/09/26 11:21:20;;;;;;;2.92;1.90;;;23.50;99.90;;;;;;5017838;28;20549;-59
2023/09/26 11:23:46;;;;;;;2.45;1.73;;;23.60;99.90;;;;;;5020954;28;20030;-59
2023/09/26 11:26:11;;;;;;;5.43;1.95;;;23.70;99.90;;;;;;5023379;28;20045;-59
2023/09/26 11:28:38;;;;;;;5.68;1.80;;;23.80;99.90;;;;;;5017808;28;20499;-58
2023/09/26 11:31:05;;;;;;;2.65;1.50;;;23.70;99.90;;;;;;5020433;28;20049;-57
2023/09/26 11:33:31;;;;;;;3.92;1.70;;;23.80;99.90;;;;;;5018384;28;20022;-58
2023/09/26 11:35:57;;;;;;;2.45;1.77;;;23.90;99.90;;;;;;5025191;28;20488;-59
2023/09/26 11:38:22;;;;;;;4.30;1.77;;;24.00;99.90;;;;;;5017849;28;20038;-57
2023/09/26 11:40:48;;;;;;;5.28;2.00;;;24.20;99.90;;;;;;5019168;28;20540;-58
2023/09/26 11:43:13;;;;;;;4.45;1.73;;;24.30;99.90;;;;;;5021192;28;20037;-56
2023/09/26 11:45:39;;;;;;;4.78;1.88;;;24.50;99.90;;;;;;5023743;28;20037;-57
2023/09/26 11:48:08;;;;;;;5.72;2.08;;;24.80;99.90;;;;;;5017914;28;20035;-59
2023/09/26 11:50:36;;;;;;;5.53;1.70;;;24.80;99.90;;;;;;5025796;28;20030;-58
2023/09/26 11:53:02;;;;;;;4.38;2.20;;;25.10;99.90;;;;;;5021168;28;20476;-59
2023/09/26 11:55:29;;;;;;;2.20;1.52;;;25.20;99.90;;;;;;5021717;28;20022;-59
2023/09/26 11:57:55;;;;;;;3.53;1.50;;;25.30;99.90;;;;;;5019111;28;20390;-57
2023/09/26 12:00:20;;;;;;;3.45;2.17;;;25.50;99.90;;;;;;5025766;28;20022;-56
2023/09/26 12:02:50;;;;;;;7.63;1.90;;;25.20;99.90;;;;;;5021729;28;20029;-57
2023/09/26 12:05:20;;;;;;;6.30;2.00;;;25.30;99.90;;;;;;5028640;28;20018;-58
2023/09/26 12:07:47;;;;;;;4.50;1.83;;;25.30;99.90;;;;;;5019276;28;20471;-59
2023/09/26 12:10:13;;;;;;;4.25;1.70;;;25.50;99.90;;;;;;5027087;28;20410;-59
2023/09/26 12:12:39;;;;;;;5.57;2.22;;;25.50;99.90;;;;;;5018256;28;20112;-59
2023/09/26 12:15:21;;;;;;;2.17;1.73;;;25.50;99.90;;;;;;5023885;28;20018;-59
2023/09/26 12:17:51;;;;;;;2.85;2.13;;;25.30;99.90;;;;;;5017671;28;20033;-59
2023/09/26 12:20:21;;;;;;;5.28;2.08;;;25.30;99.90;;;;;;5023636;28;20037;-60
2023/09/26 12:22:47;;;;;;;6.63;2.00;;;25.00;99.90;;;;;;5019822;28;20175;-59
2023/09/26 12:25:13;;;;;;;2.75;1.67;;;24.80;99.90;;;;;;5026113;28;20033;-60
2023/09/26 12:27:38;;;;;;;5.50;2.28;;;24.80;99.90;;;;;;5023250;28;20033;-59
2023/09/26 12:30:05;;;;;;;7.70;1.80;;;24.80;99.90;;;;;;5035295;28;20036;-58
2023/09/26 12:32:31;;;;;;;7.00;2.13;;;24.70;99.90;;;;;;5018733;28;20013;-58
2023/09/26 12:34:56;;;;;;;8.25;1.95;;;24.70;99.90;;;;;;5030869;28;20033;-59
2023/09/26 12:37:23;;;;;;;2.20;1.67;;;24.80;99.90;;;;;;5032637;28;20025;-60
2023/09/26 12:39:48;;;;;;;2.88;1.85;;;24.70;99.90;;;;;;5019562;28;20029;-60
2023/09/26 12:42:14;;;;;;;2.00;1.63;;;24.80;99.90;;;;;;5026940;28;20030;-59
2023/09/26 12:44:40;;;;;;;4.07;2.28;;;24.80;99.90;;;;;;5017247;28;20060;-59